Time;durP1;ratioP1;P1;durP2;ratioP2;P2;SDS_P1;SDS_P2;PMS_P1;PMS_P2;Temp;Humidity;BMP_temperature;BMP_pressure;BME280_temperature;BME280_humidity;BME280_pressure;Samples;Min_cycle;Max_cycle;Signal;HPM_P1;HPM_P2
2022/06/12 00:00:32;;;;;;;4.95;3.83;;;18.00;75.50;;;;;;606073;234;26621;-65
2022/06/12 00:02:59;;;;;;;11.15;6.70;;;18.00;75.70;;;;;;604856;235;26626;-68
2022/06/12 00:05:27;;;;;;;13.52;6.53;;;17.90;76.70;;;;;;607261;235;26613;-68
2022/06/12 00:07:54;;;;;;;7.57;5.47;;;17.90;76.70;;;;;;608669;235;26851;-67
2022/06/12 00:10:21;;;;;;;10.60;5.95;;;18.00;78.10;;;;;;606946;235;26647;-67
2022/06/12 00:12:49;;;;;;;8.32;6.35;;;17.90;77.50;;;;;;607908;236;26607;-67
2022/06/12 00:15:16;;;;;;;8.48;5.40;;;17.90;79.00;;;;;;607285;235;26673;-68
2022/06/12 00:17:44;;;;;;;8.50;5.30;;;17.90;79.00;;;;;;609326;233;26642;-67
2022/06/12 00:20:11;;;;;;;6.95;5.05;;;17.90;80.20;;;;;;607357;234;26606;-68
2022/06/12 00:22:39;;;;;;;6.07;4.90;;;17.80;80.90;;;;;;606020;235;26637;-67
2022/06/12 00:25:09;;;;;;;6.22;5.18;;;17.80;80.40;;;;;;603932;234;26610;-67
2022/06/12 00:27:34;;;;;;;5.37;4.57;;;17.80;80.40;;;;;;605245;236;26637;-67
2022/06/12 00:30:02;;;;;;;5.18;4.68;;;17.80;80.80;;;;;;609886;235;26857;-67
2022/06/12 00:32:30;;;;;;;4.93;4.10;;;17.70;81.10;;;;;;605896;235;26593;-67
2022/06/12 00:34:56;;;;;;;5.97;4.20;;;17.70;81.30;;;;;;609642;235;27247;-67
2022/06/12 00:37:23;;;;;;;8.35;4.85;;;17.70;82.40;;;;;;604190;235;26586;-67
2022/06/12 00:39:51;;;;;;;4.50;4.10;;;17.70;81.80;;;;;;607458;235;26701;-67
2022/06/12 00:42:19;;;;;;;5.43;4.15;;;17.60;82.20;;;;;;602965;235;26570;-67
2022/06/12 00:44:47;;;;;;;4.32;3.50;;;17.60;82.20;;;;;;602306;236;26858;-67
2022/06/12 00:47:14;;;;;;;8.38;4.55;;;17.60;82.90;;;;;;605453;236;26573;-67
2022/06/12 00:49:44;;;;;;;10.20;4.25;;;17.60;83.40;;;;;;603750;236;27152;-67
2022/06/12 00:52:13;;;;;;;4.78;3.75;;;17.60;84.30;;;;;;606718;236;26564;-67
2022/06/12 00:54:41;;;;;;;4.07;3.65;;;17.50;83.70;;;;;;608941;236;26599;-67
2022/06/12 00:57:08;;;;;;;5.10;3.95;;;17.50;83.80;;;;;;604935;235;26937;-67
2022/06/12 00:59:39;;;;;;;5.68;4.05;;;17.50;84.80;;;;;;605882;236;26625;-67
2022/06/12 01:02:07;;;;;;;4.07;3.72;;;17.40;84.40;;;;;;602626;235;26621;-67
2022/06/12 01:07:08;;;;;;;6.12;4.47;;;17.40;85.30;;;;;;609799;235;26617;-67
2022/06/12 01:09:38;;;;;;;4.05;3.65;;;17.40;86.20;;;;;;605016;236;26828;-67
2022/06/12 01:12:04;;;;;;;5.32;3.60;;;17.40;85.80;;;;;;603244;236;26637;-67
2022/06/12 01:14:32;;;;;;;4.03;3.58;;;17.30;86.20;;;;;;601907;238;26605;-67
2022/06/12 01:16:59;;;;;;;4.25;3.20;;;17.30;86.70;;;;;;601375;236;27109;-67
2022/06/12 01:19:29;;;;;;;5.28;3.70;;;17.20;86.90;;;;;;609389;235;26591;-67
2022/06/12 01:21:58;;;;;;;3.83;3.53;;;17.20;86.90;;;;;;603286;235;26556;-67
2022/06/12 01:24:35;;;;;;;6.43;3.70;;;17.20;87.30;;;;;;609620;235;26616;-66
2022/06/12 01:27:20;;;;;;;5.07;3.92;;;17.20;88.20;;;;;;604432;236;26998;-67
2022/06/12 01:30:13;;;;;;;3.70;3.28;;;17.30;88.70;;;;;;608582;235;27020;-66
2022/06/12 01:32:42;;;;;;;4.55;3.65;;;17.40;88.50;;;;;;599496;237;26647;-66
2022/06/12 01:35:21;;;;;;;4.15;3.40;;;17.40;87.80;;;;;;607789;234;26665;-66
2022/06/12 01:38:01;;;;;;;4.32;3.53;;;17.40;87.90;;;;;;605521;235;26864;-67
2022/06/12 01:40:30;;;;;;;2.42;2.25;;;17.40;89.00;;;;;;602037;238;26567;-65
2022/06/12 01:43:00;;;;;;;3.62;3.33;;;17.40;89.00;;;;;;603117;235;26831;-68
2022/06/12 01:45:45;;;;;;;4.97;3.80;;;17.30;89.00;;;;;;607034;235;26878;-68
2022/06/12 01:48:30;;;;;;;3.35;3.05;;;17.30;88.80;;;;;;606256;235;26818;-68
2022/06/12 01:50:59;;;;;;;3.85;3.55;;;17.30;89.20;;;;;;601182;235;26891;-67
2022/06/12 01:53:34;;;;;;;3.58;3.28;;;17.30;89.10;;;;;;603501;236;26592;-68
2022/06/12 01:56:20;;;;;;;4.72;3.33;;;17.30;89.00;;;;;;603508;235;26878;-68
2022/06/12 01:59:08;;;;;;;5.18;3.47;;;17.30;90.10;;;;;;603839;238;26574;-67
2022/06/12 02:01:39;;;;;;;4.07;3.10;;;17.20;90.00;;;;;;606303;235;26607;-68
2022/06/12 02:04:25;;;;;;;3.15;2.90;;;17.40;89.80;;;;;;605192;236;26588;-68
2022/06/12 02:07:09;;;;;;;3.90;3.60;;;17.40;90.00;;;;;;605861;235;26669;-68
2022/06/12 02:09:37;;;;;;;3.25;3.00;;;17.40;90.20;;;;;;597015;236;26656;-67
2022/06/12 02:14:41;;;;;;;3.05;2.83;;;17.40;89.70;;;;;;602621;235;26630;-67
2022/06/12 02:17:08;;;;;;;3.22;2.92;;;17.40;90.20;;;;;;603247;236;26866;-68
2022/06/12 02:19:36;;;;;;;3.53;3.03;;;17.50;90.10;;;;;;604458;236;26650;-67
2022/06/12 02:22:06;;;;;;;3.15;2.85;;;17.50;89.90;;;;;;604358;236;26855;-67
2022/06/12 02:24:35;;;;;;;4.57;3.20;;;17.60;89.40;;;;;;606439;235;26588;-67
2022/06/12 02:27:02;;;;;;;3.58;3.28;;;17.70;88.90;;;;;;608268;234;26849;-68
2022/06/12 02:29:30;;;;;;;3.25;3.00;;;17.80;89.50;;;;;;608935;234;26809;-67
2022/06/12 02:31:58;;;;;;;3.45;3.15;;;17.90;88.80;;;;;;605443;234;26550;-68
2022/06/12 02:34:27;;;;;;;3.30;3.10;;;17.90;88.20;;;;;;602471;236;26644;-67
2022/06/12 02:36:56;;;;;;;3.28;3.08;;;17.90;88.40;;;;;;607709;235;26664;-67
2022/06/12 02:39:24;;;;;;;3.25;2.95;;;17.90;88.30;;;;;;601323;237;26637;-68
2022/06/12 02:41:55;;;;;;;4.45;2.97;;;18.00;88.10;;;;;;603214;235;26649;-67
2022/06/12 02:44:39;;;;;;;3.70;2.80;;;18.00;87.40;;;;;;602568;235;26626;-67
2022/06/12 02:47:18;;;;;;;3.00;2.80;;;18.10;88.00;;;;;;604923;234;27324;-67
2022/06/12 02:49:46;;;;;;;2.97;2.78;;;18.20;87.50;;;;;;603638;235;26864;-67
2022/06/12 02:52:18;;;;;;;3.10;2.80;;;18.20;87.10;;;;;;604632;235;26637;-67
2022/06/12 02:55:01;;;;;;;2.95;2.70;;;18.20;86.80;;;;;;610828;234;27027;-67
2022/06/12 02:57:30;;;;;;;3.00;2.80;;;18.20;86.90;;;;;;605117;236;26637;-68
2022/06/12 03:00:06;;;;;;;3.75;3.20;;;18.30;86.40;;;;;;604203;238;26583;-68
2022/06/12 03:02:35;;;;;;;3.30;2.75;;;18.30;86.40;;;;;;604904;236;26577;-66
2022/06/12 03:05:02;;;;;;;3.05;2.85;;;18.30;86.40;;;;;;607446;235;26904;-68
2022/06/12 03:07:29;;;;;;;3.40;3.10;;;18.30;86.20;;;;;;606139;236;26572;-67
2022/06/12 03:09:57;;;;;;;3.12;2.90;;;18.40;85.90;;;;;;604690;236;26817;-67
2022/06/12 03:12:24;;;;;;;3.42;3.00;;;18.40;86.10;;;;;;604944;236;26580;-67
2022/06/12 03:14:52;;;;;;;3.10;2.90;;;18.40;85.50;;;;;;606058;236;26611;-67
2022/06/12 03:17:19;;;;;;;3.83;3.03;;;18.40;85.40;;;;;;607341;235;26638;-68
2022/06/12 03:19:47;;;;;;;2.90;2.70;;;18.30;85.30;;;;;;605491;235;26627;-68
2022/06/12 03:22:26;;;;;;;2.45;2.35;;;18.20;85.60;;;;;;607228;235;26641;-68
2022/06/12 03:25:11;;;;;;;3.03;2.83;;;18.20;85.60;;;;;;601448;238;26654;-67
2022/06/12 03:27:44;;;;;;;3.17;2.62;;;18.20;85.30;;;;;;606750;236;26870;-67
2022/06/12 03:30:20;;;;;;;3.10;2.80;;;18.10;86.20;;;;;;605826;236;26595;-68
2022/06/12 03:33:08;;;;;;;4.97;2.92;;;18.30;85.80;;;;;;611188;234;26608;-69
2022/06/12 03:35:54;;;;;;;2.97;2.72;;;18.30;85.80;;;;;;606290;235;26862;-68
2022/06/12 03:38:25;;;;;;;2.85;2.65;;;18.50;85.00;;;;;;608850;234;26585;-68
2022/06/12 03:40:58;;;;;;;3.08;2.83;;;18.40;84.90;;;;;;606448;235;26584;-68
2022/06/12 03:43:44;;;;;;;2.80;2.60;;;18.50;84.70;;;;;;606833;235;26642;-68
2022/06/12 03:46:17;;;;;;;3.17;2.97;;;18.50;84.20;;;;;;607933;235;26665;-68
2022/06/12 03:49:02;;;;;;;2.80;2.60;;;18.50;84.20;;;;;;602708;235;26616;-68
2022/06/12 03:51:30;;;;;;;2.97;2.78;;;18.50;84.40;;;;;;595681;236;26879;-68
2022/06/12 03:53:58;;;;;;;3.42;3.12;;;18.50;84.10;;;;;;606141;237;26577;-68
2022/06/12 03:59:02;;;;;;;2.92;2.65;;;18.50;84.00;;;;;;611594;234;26813;-68
2022/06/12 04:01:30;;;;;;;2.97;2.72;;;18.60;84.30;;;;;;603051;237;26635;-68
2022/06/12 04:03:57;;;;;;;2.83;2.62;;;18.50;84.20;;;;;;603621;237;27375;-68
2022/06/12 04:06:25;;;;;;;3.10;2.80;;;18.50;84.30;;;;;;608848;235;26564;-68
2022/06/12 04:08:54;;;;;;;2.47;2.30;;;18.40;84.50;;;;;;604683;235;26907;-68
2022/06/12 04:11:21;;;;;;;3.15;2.90;;;18.30;84.70;;;;;;603022;238;26594;-68
2022/06/12 04:13:49;;;;;;;2.70;2.50;;;18.20;86.90;;;;;;604270;235;26613;-68
2022/06/12 04:16:34;;;;;;;4.55;3.00;;;18.10;87.90;;;;;;604547;236;26591;-69
2022/06/12 04:19:01;;;;;;;2.87;2.65;;;18.10;87.80;;;;;;601065;238;26618;-68
2022/06/12 04:21:33;;;;;;;3.00;2.80;;;18.30;90.60;;;;;;603988;236;26599;-68
2022/06/12 04:24:02;;;;;;;2.95;2.75;;;18.20;90.20;;;;;;605572;236;26573;-68
2022/06/12 04:26:36;;;;;;;3.15;2.85;;;18.30;90.30;;;;;;607806;236;26909;-68
2022/06/12 04:29:05;;;;;;;2.90;2.60;;;18.50;90.30;;;;;;604216;234;26589;-68
2022/06/12 04:31:33;;;;;;;3.55;3.20;;;18.70;89.80;;;;;;601950;236;26927;-68
2022/06/12 04:34:08;;;;;;;3.17;2.97;;;18.70;89.80;;;;;;601488;239;26879;-69
2022/06/12 04:36:35;;;;;;;3.67;3.12;;;18.40;90.70;;;;;;601983;236;26657;-68
2022/06/12 04:39:03;;;;;;;3.70;3.30;;;18.20;91.10;;;;;;607450;236;26625;-68
2022/06/12 04:41:31;;;;;;;4.55;3.25;;;18.20;91.10;;;;;;604545;235;26634;-67
2022/06/12 04:43:59;;;;;;;11.48;3.80;;;18.10;91.20;;;;;;603129;235;26873;-69
2022/06/12 04:46:26;;;;;;;3.53;3.22;;;18.10;91.50;;;;;;604145;236;26613;-69
2022/06/12 04:48:53;;;;;;;3.97;3.03;;;18.10;91.30;;;;;;607155;236;26867;-69
2022/06/12 04:51:20;;;;;;;3.47;3.17;;;18.20;90.40;;;;;;604143;236;26554;-69
2022/06/12 04:53:47;;;;;;;2.97;2.78;;;18.30;91.90;;;;;;608856;236;26804;-69
2022/06/12 04:56:15;;;;;;;3.45;3.08;;;18.40;92.20;;;;;;605252;236;26675;-69
2022/06/12 04:58:42;;;;;;;4.15;3.08;;;18.40;91.80;;;;;;603892;237;26607;-69
2022/06/12 05:01:09;;;;;;;3.15;2.85;;;18.50;91.80;;;;;;603054;238;26554;-69
2022/06/12 05:03:36;;;;;;;4.62;3.12;;;18.60;93.20;;;;;;607537;233;26599;-69
2022/06/12 05:06:03;;;;;;;3.10;2.80;;;18.60;93.70;;;;;;608162;234;26618;-69
2022/06/12 05:08:31;;;;;;;3.12;2.72;;;18.60;94.70;;;;;;604698;237;26798;-69
2022/06/12 05:10:58;;;;;;;6.07;3.00;;;18.60;95.80;;;;;;604389;235;26600;-69
2022/06/12 05:13:25;;;;;;;3.35;3.05;;;18.60;95.20;;;;;;606998;236;26838;-69
2022/06/12 05:15:52;;;;;;;3.20;2.92;;;18.50;95.60;;;;;;606292;235;26638;-70
2022/06/12 05:18:19;;;;;;;3.20;2.87;;;18.60;94.90;;;;;;610831;236;26565;-69
2022/06/12 05:20:48;;;;;;;3.33;3.03;;;18.80;95.60;;;;;;605210;235;26550;-69
2022/06/12 05:23:16;;;;;;;3.08;2.87;;;18.90;95.20;;;;;;606291;235;26578;-69
2022/06/12 05:25:43;;;;;;;3.03;2.83;;;19.00;94.90;;;;;;606902;235;26599;-69
2022/06/12 05:28:11;;;;;;;3.75;2.97;;;19.00;94.90;;;;;;611968;234;26587;-69
2022/06/12 05:30:38;;;;;;;3.65;3.35;;;19.00;96.40;;;;;;609142;236;26629;-69
2022/06/12 05:33:05;;;;;;;5.95;2.97;;;19.00;96.70;;;;;;606746;235;26820;-69
2022/06/12 05:35:32;;;;;;;3.45;3.15;;;19.00;94.30;;;;;;605324;235;26571;-69
2022/06/12 05:38:00;;;;;;;3.47;3.22;;;18.90;93.70;;;;;;602289;236;26839;-69
2022/06/12 05:40:27;;;;;;;3.12;2.90;;;19.10;95.60;;;;;;603953;236;26590;-69
2022/06/12 05:42:54;;;;;;;2.80;2.60;;;19.20;94.90;;;;;;604421;236;26843;-69
2022/06/12 05:45:21;;;;;;;3.45;3.20;;;19.30;95.10;;;;;;607046;236;26607;-69
2022/06/12 05:47:49;;;;;;;4.72;3.45;;;19.40;94.30;;;;;;603246;238;26598;-69
2022/06/12 05:50:17;;;;;;;3.08;2.85;;;19.60;92.10;;;;;;604395;237;26611;-69
2022/06/12 05:52:45;;;;;;;3.20;2.90;;;19.60;93.40;;;;;;604342;236;26628;-69
2022/06/12 05:55:13;;;;;;;3.30;2.90;;;19.70;92.10;;;;;;603522;235;26600;-69
2022/06/12 05:57:40;;;;;;;3.58;3.28;;;19.70;92.00;;;;;;606731;235;26661;-69
2022/06/12 06:00:09;;;;;;;3.35;3.05;;;19.80;92.00;;;;;;608371;235;26603;-69
2022/06/12 06:02:38;;;;;;;3.25;2.97;;;19.90;90.50;;;;;;602476;236;26661;-69
2022/06/12 06:05:03;;;;;;;3.30;3.00;;;20.10;88.90;;;;;;602913;236;26859;-69
2022/06/12 06:07:31;;;;;;;3.30;3.00;;;20.30;90.40;;;;;;601525;238;26952;-69
2022/06/12 06:09:59;;;;;;;3.12;2.80;;;20.50;89.70;;;;;;601582;238;26627;-69
2022/06/12 06:12:27;;;;;;;3.40;3.12;;;20.70;87.00;;;;;;601499;238;26608;-69
2022/06/12 06:14:55;;;;;;;2.80;2.58;;;20.70;84.70;;;;;;606684;233;26625;-69
2022/06/12 06:17:23;;;;;;;3.60;2.90;;;20.70;85.10;;;;;;603966;234;26672;-69
2022/06/12 06:19:50;;;;;;;3.85;2.90;;;20.70;85.10;;;;;;603210;235;26585;-69
2022/06/12 06:22:18;;;;;;;2.80;2.60;;;20.60;83.10;;;;;;608693;235;26658;-69
2022/06/12 06:24:45;;;;;;;3.10;2.90;;;20.70;85.50;;;;;;607835;234;26799;-69
2022/06/12 06:27:12;;;;;;;3.50;3.20;;;20.60;85.30;;;;;;604017;237;26860;-69
2022/06/12 06:29:39;;;;;;;3.47;3.00;;;20.70;83.30;;;;;;605237;235;26635;-69
2022/06/12 06:32:08;;;;;;;2.70;2.50;;;20.70;82.40;;;;;;604311;236;27307;-70
2022/06/12 06:34:34;;;;;;;3.20;3.00;;;20.80;83.40;;;;;;604819;238;26565;-69
2022/06/12 06:37:02;;;;;;;3.28;2.60;;;21.00;82.80;;;;;;604633;236;26776;-69
2022/06/12 06:39:29;;;;;;;3.22;3.03;;;21.30;80.40;;;;;;603717;237;26615;-70
2022/06/12 06:41:56;;;;;;;2.87;2.67;;;21.50;80.70;;;;;;604572;236;26822;-70
2022/06/12 06:46:57;;;;;;;3.03;2.80;;;21.30;81.80;;;;;;605069;235;26547;-70
2022/06/12 06:49:24;;;;;;;2.80;2.60;;;21.30;81.00;;;;;;604230;236;26837;-70
2022/06/12 06:51:51;;;;;;;3.00;2.80;;;21.30;81.10;;;;;;602489;236;26599;-70
2022/06/12 06:54:18;;;;;;;2.90;2.70;;;21.30;81.60;;;;;;606341;236;26566;-70
2022/06/12 06:56:46;;;;;;;2.90;2.70;;;21.40;80.40;;;;;;604251;235;26662;-70
2022/06/12 06:59:14;;;;;;;3.10;2.80;;;21.60;79.30;;;;;;603154;236;26690;-70
2022/06/12 07:01:42;;;;;;;3.03;2.78;;;21.60;78.60;;;;;;605232;235;26594;-70
2022/06/12 07:04:10;;;;;;;3.30;3.10;;;21.60;78.60;;;;;;602040;237;26638;-70
2022/06/12 07:06:37;;;;;;;4.22;2.97;;;21.80;78.60;;;;;;602373;236;26644;-70
2022/06/12 07:09:05;;;;;;;3.03;2.72;;;22.00;78.20;;;;;;604602;237;26600;-70
2022/06/12 07:11:32;;;;;;;3.40;2.78;;;22.00;78.20;;;;;;604534;236;26586;-70
2022/06/12 07:13:59;;;;;;;3.37;2.80;;;22.00;78.00;;;;;;605121;236;26587;-70
2022/06/12 07:16:27;;;;;;;2.85;2.65;;;22.00;77.50;;;;;;602855;235;26657;-70
2022/06/12 07:18:54;;;;;;;3.47;3.15;;;21.80;77.10;;;;;;603666;235;27356;-70
2022/06/12 07:21:21;;;;;;;3.55;3.33;;;21.60;78.80;;;;;;604336;235;26587;-70
2022/06/12 07:23:49;;;;;;;3.22;3.00;;;21.20;78.00;;;;;;602368;236;26628;-70
2022/06/12 07:26:19;;;;;;;2.70;2.50;;;21.10;78.60;;;;;;610051;233;26611;-70
2022/06/12 07:28:47;;;;;;;3.92;2.75;;;21.20;78.80;;;;;;607378;234;26913;-70
2022/06/12 07:31:14;;;;;;;3.35;3.12;;;21.20;78.80;;;;;;602698;237;27300;-70
2022/06/12 07:33:41;;;;;;;2.50;2.40;;;21.30;78.10;;;;;;606220;234;26639;-70
2022/06/12 07:36:09;;;;;;;2.95;2.65;;;21.40;77.50;;;;;;603328;235;26872;-70
2022/06/12 07:38:36;;;;;;;3.22;2.87;;;21.60;76.60;;;;;;604172;236;27268;-70
2022/06/12 07:41:03;;;;;;;3.22;3.03;;;21.80;76.80;;;;;;604081;238;26633;-70
2022/06/12 07:43:33;;;;;;;2.95;2.78;;;21.90;74.50;;;;;;605128;237;27378;-70
2022/06/12 07:45:58;;;;;;;2.90;2.70;;;22.20;73.50;;;;;;604309;235;26605;-69
2022/06/12 07:48:25;;;;;;;4.60;2.70;;;22.50;74.00;;;;;;606001;236;26937;-69
2022/06/12 07:50:52;;;;;;;3.30;3.00;;;22.80;72.80;;;;;;605936;236;26584;-69
2022/06/12 07:53:20;;;;;;;3.10;2.90;;;23.00;71.20;;;;;;604755;235;26908;-69
2022/06/12 07:55:46;;;;;;;2.45;2.25;;;23.40;70.30;;;;;;605116;236;26601;-69
2022/06/12 07:58:14;;;;;;;3.25;2.92;;;23.40;70.10;;;;;;604111;237;27058;-69
2022/06/12 08:00:41;;;;;;;3.25;3.00;;;23.20;68.50;;;;;;603350;232;26621;-69
2022/06/12 08:03:08;;;;;;;3.08;2.87;;;23.20;67.40;;;;;;602804;237;26953;-69
2022/06/12 08:05:36;;;;;;;3.03;2.83;;;23.60;65.60;;;;;;602203;237;26612;-69
2022/06/12 08:08:03;;;;;;;2.90;2.70;;;23.60;65.60;;;;;;604505;235;26611;-69
2022/06/12 08:10:31;;;;;;;3.05;2.75;;;23.80;65.00;;;;;;604507;235;26582;-69
2022/06/12 08:12:58;;;;;;;4.15;2.85;;;24.00;62.80;;;;;;605318;236;26863;-69
2022/06/12 08:15:27;;;;;;;2.70;2.50;;;24.70;61.30;;;;;;605119;234;26697;-69
2022/06/12 08:17:56;;;;;;;3.05;2.67;;;24.70;61.30;;;;;;604167;236;26567;-70
2022/06/12 08:20:25;;;;;;;2.33;2.10;;;24.90;60.30;;;;;;609005;235;26876;-70
2022/06/12 08:22:53;;;;;;;2.95;2.75;;;24.70;59.10;;;;;;606372;236;26566;-70
2022/06/12 08:25:20;;;;;;;3.78;2.80;;;24.50;59.30;;;;;;604777;235;26654;-70
2022/06/12 08:27:47;;;;;;;2.85;2.65;;;24.60;59.40;;;;;;605121;235;26658;-69
2022/06/12 08:30:15;;;;;;;3.03;2.83;;;24.70;59.40;;;;;;604219;236;26866;-69
2022/06/12 08:32:42;;;;;;;3.10;2.80;;;24.60;59.00;;;;;;604755;235;26619;-69
2022/06/12 08:35:10;;;;;;;2.30;2.20;;;24.70;59.40;;;;;;606527;235;26862;-69
2022/06/12 08:37:38;;;;;;;8.25;3.08;;;24.70;56.70;;;;;;603831;235;26674;-69
2022/06/12 08:40:09;;;;;;;6.12;3.05;;;24.70;56.60;;;;;;610875;234;26917;-70
2022/06/12 08:42:41;;;;;;;6.10;2.65;;;24.90;56.40;;;;;;606413;234;26623;-69
2022/06/12 08:45:18;;;;;;;4.10;2.90;;;25.00;55.90;;;;;;604950;235;26627;-71
2022/06/12 08:47:52;;;;;;;3.10;2.80;;;25.00;55.90;;;;;;606288;234;26640;-70
2022/06/12 08:50:21;;;;;;;6.12;5.50;;;25.30;55.80;;;;;;604464;235;26873;-70
2022/06/12 08:52:51;;;;;;;9.98;7.80;;;25.50;56.10;;;;;;606201;230;26555;-70
2022/06/12 08:55:35;;;;;;;10.90;7.15;;;25.60;54.90;;;;;;605330;232;26576;-70
2022/06/12 08:58:02;;;;;;;9.65;6.85;;;25.50;54.80;;;;;;605823;235;26709;-70
2022/06/12 09:00:30;;;;;;;10.82;8.00;;;25.70;55.10;;;;;;607175;235;26587;-69
2022/06/12 09:02:59;;;;;;;10.98;8.77;;;25.60;54.20;;;;;;604734;235;26585;-70
2022/06/12 09:05:31;;;;;;;11.25;7.30;;;25.50;53.50;;;;;;601745;237;26864;-69
2022/06/12 09:08:02;;;;;;;5.40;4.65;;;25.90;53.80;;;;;;601399;238;26600;-67
2022/06/12 09:10:33;;;;;;;9.43;6.60;;;26.00;53.10;;;;;;604542;235;26652;-67
2022/06/12 09:13:01;;;;;;;8.00;6.30;;;26.00;51.80;;;;;;601996;235;26906;-71
2022/06/12 09:15:39;;;;;;;9.95;6.32;;;26.00;51.80;;;;;;603199;235;26900;-71
2022/06/12 09:18:22;;;;;;;7.43;6.15;;;26.10;51.70;;;;;;606508;234;26852;-71
2022/06/12 09:21:10;;;;;;;7.20;5.40;;;25.90;51.50;;;;;;602898;235;26617;-71
2022/06/12 09:23:37;;;;;;;10.13;7.60;;;25.70;52.50;;;;;;608680;235;26575;-71
2022/06/12 09:31:51;;;;;;;9.45;6.78;;;25.30;53.30;;;;;;657425;216;26507;-64
2022/06/12 09:34:44;;;;;;;9.75;7.00;;;25.30;53.40;;;;;;653128;216;26546;-64
2022/06/12 09:40:02;;;;;;;9.57;6.70;;;25.10;52.90;;;;;;643768;221;27212;-65
2022/06/12 09:42:28;;;;;;;8.20;6.50;;;25.00;52.20;;;;;;638518;221;26627;-65
2022/06/12 09:44:58;;;;;;;7.37;5.90;;;25.00;52.20;;;;;;638603;221;27273;-65
2022/06/12 09:47:29;;;;;;;7.10;6.40;;;24.90;52.30;;;;;;640203;217;26551;-65
2022/06/12 09:50:17;;;;;;;7.90;6.47;;;25.10;51.80;;;;;;650400;219;26786;-65
2022/06/12 09:52:49;;;;;;;7.80;6.30;;;25.50;52.30;;;;;;644871;220;26807;-65
2022/06/12 09:55:16;;;;;;;8.43;5.68;;;25.90;52.00;;;;;;645804;222;26793;-65
2022/06/12 09:57:44;;;;;;;6.90;5.53;;;25.30;52.00;;;;;;638441;224;26595;-65
2022/06/12 10:00:16;;;;;;;6.95;5.30;;;25.30;52.00;;;;;;646116;221;26564;-65
2022/06/12 10:02:49;;;;;;;5.95;5.35;;;25.50;52.30;;;;;;644521;221;26571;-65
2022/06/12 10:05:17;;;;;;;6.72;5.75;;;26.20;53.00;;;;;;647841;220;27252;-71
2022/06/12 10:07:46;;;;;;;8.45;5.05;;;26.20;52.50;;;;;;643667;221;26806;-71
2022/06/12 10:10:17;;;;;;;6.45;5.30;;;26.20;52.40;;;;;;641653;221;26802;-71
2022/06/12 10:12:44;;;;;;;8.15;5.97;;;26.10;51.80;;;;;;640738;220;26544;-72
2022/06/12 10:15:27;;;;;;;5.22;4.47;;;25.50;51.50;;;;;;644197;221;26798;-71
2022/06/12 10:17:58;;;;;;;6.70;5.03;;;25.00;52.50;;;;;;640623;218;26541;-71
2022/06/12 10:20:25;;;;;;;5.12;4.62;;;25.10;52.50;;;;;;641911;221;26554;-75
2022/06/12 10:22:52;;;;;;;7.68;4.70;;;25.30;53.00;;;;;;649330;221;26746;-73
2022/06/12 10:25:19;;;;;;;4.93;4.37;;;25.60;52.10;;;;;;645989;219;26570;-74
2022/06/12 10:27:48;;;;;;;6.85;4.78;;;25.90;51.90;;;;;;638322;221;26528;-70
2022/06/12 10:30:41;;;;;;;4.90;4.25;;;25.80;51.80;;;;;;639634;221;26501;-74
2022/06/12 10:33:15;;;;;;;5.72;3.78;;;26.00;51.20;;;;;;639178;223;27054;-69
2022/06/12 10:35:46;;;;;;;2.75;2.53;;;26.10;51.00;;;;;;641743;221;26737;-69
2022/06/12 10:38:13;;;;;;;4.87;4.22;;;26.20;50.50;;;;;;641375;221;26520;-70
2022/06/12 10:40:46;;;;;;;4.85;4.10;;;25.40;50.40;;;;;;640635;221;26534;-69
2022/06/12 10:43:21;;;;;;;3.05;2.58;;;25.20;50.30;;;;;;640541;220;26550;-71
2022/06/12 10:45:48;;;;;;;6.95;4.68;;;25.20;50.30;;;;;;644225;221;26808;-69
2022/06/12 10:48:21;;;;;;;4.60;4.20;;;25.50;50.70;;;;;;637069;223;26535;-71
2022/06/12 10:50:49;;;;;;;4.65;3.90;;;25.50;49.80;;;;;;648543;221;26568;-68
2022/06/12 10:53:16;;;;;;;4.00;3.58;;;25.50;49.20;;;;;;645989;221;26573;-65
2022/06/12 10:55:48;;;;;;;58.83;14.90;;;25.40;48.90;;;;;;646118;221;26816;-66
2022/06/12 10:58:20;;;;;;;86.37;20.98;;;25.80;48.30;;;;;;643801;221;26553;-67
2022/06/12 11:00:47;;;;;;;132.55;27.60;;;25.50;47.80;;;;;;644935;219;26545;-70
2022/06/12 11:03:35;;;;;;;93.65;23.62;;;25.40;48.90;;;;;;641471;220;26791;-67
2022/06/12 11:06:06;;;;;;;108.10;23.23;;;25.40;48.20;;;;;;636820;220;27268;-68
2022/06/12 11:08:50;;;;;;;58.90;14.70;;;25.70;48.70;;;;;;651631;220;26803;-67
2022/06/12 11:11:20;;;;;;;85.35;21.67;;;25.80;48.00;;;;;;650974;221;26745;-68
2022/06/12 11:13:55;;;;;;;83.90;19.12;;;26.10;46.70;;;;;;646577;221;26577;-68
2022/06/12 11:16:25;;;;;;;82.00;19.80;;;26.00;46.50;;;;;;637854;224;26471;-69
2022/06/12 11:18:56;;;;;;;65.68;16.85;;;25.40;47.60;;;;;;648428;221;26855;-67
2022/06/12 11:21:39;;;;;;;65.82;15.15;;;24.80;48.50;;;;;;639654;221;26746;-70
2022/06/12 11:24:08;;;;;;;50.80;13.35;;;24.90;48.70;;;;;;649506;221;27071;-68
2022/06/12 11:27:11;;;;;;;55.10;12.37;;;25.10;48.90;;;;;;640972;221;26609;-69
2022/06/12 11:29:47;;;;;;;39.50;9.88;;;25.40;48.70;;;;;;636223;221;26587;-68
2022/06/12 11:32:47;;;;;;;33.58;8.30;;;25.60;48.80;;;;;;644042;221;26569;-71
2022/06/12 11:35:37;;;;;;;30.30;7.62;;;25.50;48.20;;;;;;637708;220;26577;-70
2022/06/12 11:38:12;;;;;;;15.43;5.45;;;25.90;47.50;;;;;;638190;221;26565;-69
2022/06/12 11:40:54;;;;;;;20.55;6.50;;;25.90;47.60;;;;;;639721;221;26742;-69
2022/06/12 11:43:39;;;;;;;10.82;4.72;;;26.20;46.50;;;;;;639233;221;26589;-67
2022/06/12 11:46:42;;;;;;;13.60;5.47;;;26.20;46.50;;;;;;640762;221;26503;-70
2022/06/12 11:49:16;;;;;;;15.55;5.15;;;26.40;45.70;;;;;;643369;221;26584;-67
2022/06/12 11:51:49;;;;;;;11.90;5.18;;;26.40;45.80;;;;;;639460;221;26794;-67
2022/06/12 11:54:27;;;;;;;8.30;3.35;;;26.10;46.20;;;;;;643407;221;26593;-67
2022/06/12 11:57:12;;;;;;;15.65;3.97;;;26.00;46.20;;;;;;640283;221;26608;-67
2022/06/12 11:59:47;;;;;;;7.40;3.97;;;26.00;46.20;;;;;;643309;221;26819;-71
2022/06/12 12:02:33;;;;;;;8.07;3.67;;;25.90;46.50;;;;;;643459;220;26519;-69
2022/06/12 12:05:11;;;;;;;8.32;3.72;;;25.80;46.40;;;;;;637722;221;26504;-66
2022/06/12 12:07:40;;;;;;;6.25;3.60;;;25.70;46.40;;;;;;638118;223;26550;-67
2022/06/12 12:10:24;;;;;;;4.65;3.20;;;25.70;46.10;;;;;;644454;221;26803;-67
2022/06/12 12:12:53;;;;;;;7.87;2.90;;;25.60;46.70;;;;;;640496;220;26582;-66
2022/06/12 12:15:20;;;;;;;5.37;3.05;;;25.60;46.70;;;;;;643316;220;26508;-70
2022/06/12 12:17:47;;;;;;;7.85;3.55;;;26.20;46.20;;;;;;645536;220;26582;-69
2022/06/12 12:20:14;;;;;;;5.85;3.35;;;26.40;46.20;;;;;;651742;221;26834;-68
2022/06/12 12:22:52;;;;;;;7.20;3.12;;;26.50;45.30;;;;;;641295;221;26590;-67
2022/06/12 12:25:23;;;;;;;4.80;3.42;;;26.50;45.20;;;;;;643727;221;26520;-67
2022/06/12 12:27:52;;;;;;;7.80;3.40;;;26.30;45.60;;;;;;644133;220;26813;-66
2022/06/12 12:30:19;;;;;;;10.02;3.60;;;25.80;46.20;;;;;;640374;221;26789;-67
2022/06/12 12:32:48;;;;;;;8.60;3.35;;;26.00;46.40;;;;;;642053;221;26608;-67
2022/06/12 12:41:11;;;;;;;4.05;3.05;;;26.40;45.80;;;;;;641499;221;26594;-68
2022/06/12 12:43:02;;;;;;;7.15;2.92;;;27.60;43.60;;;;;;642728;221;26570;-71
2022/06/12 12:45:30;;;;;;;5.35;2.85;;;27.10;44.20;;;;;;638097;225;26775;-71
2022/06/12 12:47:59;;;;;;;4.32;3.17;;;27.10;43.80;;;;;;638589;222;26590;-73
2022/06/12 12:50:27;;;;;;;4.47;2.85;;;27.20;44.00;;;;;;640769;221;26529;-75
2022/06/12 12:52:56;;;;;;;4.60;2.87;;;27.30;44.00;;;;;;642276;221;26511;-69
2022/06/12 12:55:27;;;;;;;5.37;2.78;;;28.20;43.00;;;;;;639116;221;26527;-71
2022/06/12 12:57:54;;;;;;;5.30;2.80;;;28.10;42.60;;;;;;638167;221;26585;-70
2022/06/12 13:00:26;;;;;;;9.00;3.35;;;28.30;41.30;;;;;;637643;225;26899;-71
2022/06/12 13:02:54;;;;;;;4.10;2.70;;;29.20;41.00;;;;;;638749;225;26783;-70
2022/06/12 13:05:23;;;;;;;9.60;3.00;;;29.40;39.80;;;;;;637641;225;26485;-71
2022/06/12 13:08:13;;;;;;;3.92;2.28;;;29.80;40.10;;;;;;642479;220;26836;-70
2022/06/12 13:11:05;;;;;;;8.55;2.80;;;29.60;38.50;;;;;;634746;224;26543;-70
2022/06/12 13:13:35;;;;;;;5.85;2.97;;;30.40;38.00;;;;;;647747;221;26496;-70
2022/06/12 13:16:21;;;;;;;8.20;2.87;;;31.70;36.50;;;;;;638399;221;26586;-74
2022/06/12 13:19:06;;;;;;;5.20;2.60;;;32.90;35.30;;;;;;641668;221;26616;-74
2022/06/12 13:21:48;;;;;;;3.15;2.00;;;33.10;35.10;;;;;;640485;221;26784;-71
2022/06/12 13:24:23;;;;;;;13.85;3.42;;;33.50;34.10;;;;;;651710;218;26515;-71
2022/06/12 13:26:50;;;;;;;13.90;4.90;;;33.50;34.10;;;;;;648215;220;26537;-72
2022/06/12 13:29:18;;;;;;;15.18;4.93;;;33.60;33.40;;;;;;649412;220;26591;-71